sensor_id;sensor_type;location;lat;lon;timestamp;P1;durP1;ratioP1;P2;durP2;ratioP2
76155;SDS011;64906;51.290;7.348;2024-01-27T00:01:44;27.10;;;15.27;;
76155;SDS011;64906;51.290;7.348;2024-01-27T00:04:09;29.03;;;15.00;;
76155;SDS011;64906;51.290;7.348;2024-01-27T00:06:35;25.52;;;14.45;;
76155;SDS011;64906;51.290;7.348;2024-01-27T00:09:00;29.33;;;15.13;;
76155;SDS011;64906;51.290;7.348;2024-01-27T00:11:25;26.50;;;13.93;;
76155;SDS011;64906;51.290;7.348;2024-01-27T00:13:51;25.30;;;14.10;;
76155;SDS011;64906;51.290;7.348;2024-01-27T00:16:16;25.85;;;14.10;;
76155;SDS011;64906;51.290;7.348;2024-01-27T00:18:42;27.13;;;14.03;;
76155;SDS011;64906;51.290;7.348;2024-01-27T00:21:07;24.50;;;13.40;;
76155;SDS011;64906;51.290;7.348;2024-01-27T00:23:33;24.15;;;13.55;;
76155;SDS011;64906;51.290;7.348;2024-01-27T00:25:59;23.90;;;13.63;;
76155;SDS011;64906;51.290;7.348;2024-01-27T00:28:25;26.80;;;13.60;;
76155;SDS011;64906;51.290;7.348;2024-01-27T00:30:50;27.33;;;14.60;;
76155;SDS011;64906;51.290;7.348;2024-01-27T00:33:15;24.77;;;13.50;;
76155;SDS011;64906;51.290;7.348;2024-01-27T00:35:41;23.58;;;12.93;;
76155;SDS011;64906;51.290;7.348;2024-01-27T00:38:06;23.87;;;12.87;;
76155;SDS011;64906;51.290;7.348;2024-01-27T00:40:31;24.53;;;13.63;;
76155;SDS011;64906;51.290;7.348;2024-01-27T00:42:56;24.50;;;12.90;;
76155;SDS011;64906;51.290;7.348;2024-01-27T00:45:22;23.10;;;13.33;;
76155;SDS011;64906;51.290;7.348;2024-01-27T00:47:48;23.65;;;13.10;;
76155;SDS011;64906;51.290;7.348;2024-01-27T00:50:14;23.58;;;12.57;;
76155;SDS011;64906;51.290;7.348;2024-01-27T00:52:40;22.98;;;12.40;;
76155;SDS011;64906;51.290;7.348;2024-01-27T00:55:05;22.97;;;12.57;;
76155;SDS011;64906;51.290;7.348;2024-01-27T00:57:30;23.63;;;13.15;;
76155;SDS011;64906;51.290;7.348;2024-01-27T00:59:55;22.83;;;12.50;;
76155;SDS011;64906;51.290;7.348;2024-01-27T01:02:21;21.93;;;11.77;;
76155;SDS011;64906;51.290;7.348;2024-01-27T01:04:46;21.47;;;11.77;;
76155;SDS011;64906;51.290;7.348;2024-01-27T01:07:13;23.98;;;12.48;;
76155;SDS011;64906;51.290;7.348;2024-01-27T01:09:38;20.83;;;11.33;;
76155;SDS011;64906;51.290;7.348;2024-01-27T01:12:03;23.20;;;11.57;;
76155;SDS011;64906;51.290;7.348;2024-01-27T01:14:29;21.30;;;11.55;;
76155;SDS011;64906;51.290;7.348;2024-01-27T01:16:54;22.07;;;11.73;;
76155;SDS011;64906;51.290;7.348;2024-01-27T01:19:19;22.70;;;12.07;;
76155;SDS011;64906;51.290;7.348;2024-01-27T01:21:45;20.97;;;11.23;;
76155;SDS011;64906;51.290;7.348;2024-01-27T01:24:10;19.90;;;11.37;;
76155;SDS011;64906;51.290;7.348;2024-01-27T01:26:35;18.85;;;11.40;;
76155;SDS011;64906;51.290;7.348;2024-01-27T01:29:00;20.97;;;11.70;;
76155;SDS011;64906;51.290;7.348;2024-01-27T01:31:26;20.27;;;11.43;;
76155;SDS011;64906;51.290;7.348;2024-01-27T01:33:51;21.93;;;11.57;;
76155;SDS011;64906;51.290;7.348;2024-01-27T01:36:16;18.90;;;10.83;;
76155;SDS011;64906;51.290;7.348;2024-01-27T01:38:42;18.63;;;10.67;;
76155;SDS011;64906;51.290;7.348;2024-01-27T01:41:07;20.05;;;11.32;;
76155;SDS011;64906;51.290;7.348;2024-01-27T01:43:33;19.27;;;10.40;;
76155;SDS011;64906;51.290;7.348;2024-01-27T01:45:58;19.63;;;10.57;;
76155;SDS011;64906;51.290;7.348;2024-01-27T01:48:23;21.50;;;10.55;;
76155;SDS011;64906;51.290;7.348;2024-01-27T01:50:49;19.58;;;10.02;;
76155;SDS011;64906;51.290;7.348;2024-01-27T01:53:14;20.05;;;11.00;;
76155;SDS011;64906;51.290;7.348;2024-01-27T01:55:40;16.73;;;9.88;;
76155;SDS011;64906;51.290;7.348;2024-01-27T01:58:06;19.88;;;10.23;;
76155;SDS011;64906;51.290;7.348;2024-01-27T02:00:31;19.10;;;10.13;;
76155;SDS011;64906;51.290;7.348;2024-01-27T02:02:57;18.52;;;10.32;;
76155;SDS011;64906;51.290;7.348;2024-01-27T02:05:22;18.23;;;9.90;;
76155;SDS011;64906;51.290;7.348;2024-01-27T02:07:47;18.63;;;9.90;;
76155;SDS011;64906;51.290;7.348;2024-01-27T02:10:14;16.30;;;8.83;;
76155;SDS011;64906;51.290;7.348;2024-01-27T02:12:41;20.25;;;10.18;;
76155;SDS011;64906;51.290;7.348;2024-01-27T02:15:09;17.38;;;9.80;;
76155;SDS011;64906;51.290;7.348;2024-01-27T02:17:36;17.80;;;9.45;;
76155;SDS011;64906;51.290;7.348;2024-01-27T02:20:01;16.88;;;9.48;;
76155;SDS011;64906;51.290;7.348;2024-01-27T02:22:26;16.00;;;8.85;;
76155;SDS011;64906;51.290;7.348;2024-01-27T02:24:52;18.57;;;9.37;;
76155;SDS011;64906;51.290;7.348;2024-01-27T02:27:17;15.73;;;8.67;;
76155;SDS011;64906;51.290;7.348;2024-01-27T02:29:42;16.73;;;8.87;;
76155;SDS011;64906;51.290;7.348;2024-01-27T02:32:08;17.45;;;8.77;;
76155;SDS011;64906;51.290;7.348;2024-01-27T02:34:34;16.90;;;9.13;;
76155;SDS011;64906;51.290;7.348;2024-01-27T02:36:59;17.70;;;9.37;;
76155;SDS011;64906;51.290;7.348;2024-01-27T02:39:24;17.43;;;8.80;;
76155;SDS011;64906;51.290;7.348;2024-01-27T02:41:49;17.87;;;8.87;;
76155;SDS011;64906;51.290;7.348;2024-01-27T02:44:15;17.23;;;9.00;;
76155;SDS011;64906;51.290;7.348;2024-01-27T02:46:40;18.07;;;9.20;;
76155;SDS011;64906;51.290;7.348;2024-01-27T02:49:07;16.60;;;8.32;;
76155;SDS011;64906;51.290;7.348;2024-01-27T02:51:32;17.53;;;8.43;;
76155;SDS011;64906;51.290;7.348;2024-01-27T02:53:58;16.20;;;8.43;;
76155;SDS011;64906;51.290;7.348;2024-01-27T02:56:23;18.17;;;8.53;;
76155;SDS011;64906;51.290;7.348;2024-01-27T02:58:48;15.57;;;8.50;;
76155;SDS011;64906;51.290;7.348;2024-01-27T03:01:13;16.63;;;8.13;;
76155;SDS011;64906;51.290;7.348;2024-01-27T03:03:39;16.10;;;8.77;;
76155;SDS011;64906;51.290;7.348;2024-01-27T03:06:04;16.60;;;8.43;;
76155;SDS011;64906;51.290;7.348;2024-01-27T03:08:29;15.17;;;7.70;;
76155;SDS011;64906;51.290;7.348;2024-01-27T03:10:54;15.63;;;7.83;;
76155;SDS011;64906;51.290;7.348;2024-01-27T03:13:20;15.07;;;8.27;;
76155;SDS011;64906;51.290;7.348;2024-01-27T03:15:46;15.95;;;8.10;;
76155;SDS011;64906;51.290;7.348;2024-01-27T03:18:11;14.27;;;7.77;;
76155;SDS011;64906;51.290;7.348;2024-01-27T03:20:36;13.77;;;7.80;;
76155;SDS011;64906;51.290;7.348;2024-01-27T03:23:01;13.17;;;7.40;;
76155;SDS011;64906;51.290;7.348;2024-01-27T03:25:27;15.10;;;7.40;;
76155;SDS011;64906;51.290;7.348;2024-01-27T03:27:52;13.00;;;7.20;;
76155;SDS011;64906;51.290;7.348;2024-01-27T03:30:17;14.17;;;7.37;;
76155;SDS011;64906;51.290;7.348;2024-01-27T03:32:43;13.68;;;7.75;;
76155;SDS011;64906;51.290;7.348;2024-01-27T03:35:08;14.23;;;7.03;;
76155;SDS011;64906;51.290;7.348;2024-01-27T03:37:33;13.77;;;7.75;;
76155;SDS011;64906;51.290;7.348;2024-01-27T03:39:59;14.85;;;7.40;;
76155;SDS011;64906;51.290;7.348;2024-01-27T03:42:25;16.25;;;7.47;;
76155;SDS011;64906;51.290;7.348;2024-01-27T03:44:50;13.88;;;6.80;;
76155;SDS011;64906;51.290;7.348;2024-01-27T03:47:16;12.25;;;6.55;;
76155;SDS011;64906;51.290;7.348;2024-01-27T03:49:42;13.60;;;6.50;;
76155;SDS011;64906;51.290;7.348;2024-01-27T03:52:07;13.30;;;6.90;;
76155;SDS011;64906;51.290;7.348;2024-01-27T03:54:33;16.43;;;6.87;;
76155;SDS011;64906;51.290;7.348;2024-01-27T03:56:58;14.55;;;6.75;;
76155;SDS011;64906;51.290;7.348;2024-01-27T03:59:23;14.30;;;6.30;;
76155;SDS011;64906;51.290;7.348;2024-01-27T04:01:49;13.73;;;6.83;;
76155;SDS011;64906;51.290;7.348;2024-01-27T04:04:14;14.20;;;7.27;;
76155;SDS011;64906;51.290;7.348;2024-01-27T04:06:39;12.77;;;6.80;;
76155;SDS011;64906;51.290;7.348;2024-01-27T04:09:05;12.27;;;6.20;;
76155;SDS011;64906;51.290;7.348;2024-01-27T04:11:34;11.98;;;6.35;;
76155;SDS011;64906;51.290;7.348;2024-01-27T04:14:00;13.00;;;6.75;;
76155;SDS011;64906;51.290;7.348;2024-01-27T04:16:26;13.45;;;6.68;;
76155;SDS011;64906;51.290;7.348;2024-01-27T04:18:52;11.83;;;5.50;;
76155;SDS011;64906;51.290;7.348;2024-01-27T04:21:17;14.10;;;6.50;;
76155;SDS011;64906;51.290;7.348;2024-01-27T04:23:42;13.57;;;6.57;;
76155;SDS011;64906;51.290;7.348;2024-01-27T04:26:08;12.23;;;6.00;;
76155;SDS011;64906;51.290;7.348;2024-01-27T04:28:34;12.02;;;6.15;;
76155;SDS011;64906;51.290;7.348;2024-01-27T04:30:59;13.10;;;6.57;;
76155;SDS011;64906;51.290;7.348;2024-01-27T04:33:25;11.97;;;5.80;;
76155;SDS011;64906;51.290;7.348;2024-01-27T04:35:50;12.40;;;6.07;;
76155;SDS011;64906;51.290;7.348;2024-01-27T04:38:16;11.60;;;5.43;;
76155;SDS011;64906;51.290;7.348;2024-01-27T04:40:42;11.27;;;5.60;;
76155;SDS011;64906;51.290;7.348;2024-01-27T04:43:07;10.70;;;5.37;;
76155;SDS011;64906;51.290;7.348;2024-01-27T04:45:32;11.47;;;5.20;;
76155;SDS011;64906;51.290;7.348;2024-01-27T04:47:58;11.35;;;5.45;;
76155;SDS011;64906;51.290;7.348;2024-01-27T04:50:25;9.77;;;5.43;;
76155;SDS011;64906;51.290;7.348;2024-01-27T04:52:50;13.33;;;5.80;;
76155;SDS011;64906;51.290;7.348;2024-01-27T04:55:16;10.45;;;5.13;;
76155;SDS011;64906;51.290;7.348;2024-01-27T04:57:42;11.98;;;5.43;;
76155;SDS011;64906;51.290;7.348;2024-01-27T05:00:07;12.00;;;5.73;;
76155;SDS011;64906;51.290;7.348;2024-01-27T05:02:37;10.50;;;5.30;;
76155;SDS011;64906;51.290;7.348;2024-01-27T05:05:03;10.48;;;5.45;;
76155;SDS011;64906;51.290;7.348;2024-01-27T05:07:29;10.93;;;5.13;;
76155;SDS011;64906;51.290;7.348;2024-01-27T05:09:54;9.77;;;5.10;;
76155;SDS011;64906;51.290;7.348;2024-01-27T05:12:20;9.80;;;5.27;;
76155;SDS011;64906;51.290;7.348;2024-01-27T05:14:45;10.37;;;5.43;;
76155;SDS011;64906;51.290;7.348;2024-01-27T05:17:10;11.13;;;5.05;;
76155;SDS011;64906;51.290;7.348;2024-01-27T05:19:36;10.63;;;4.87;;
76155;SDS011;64906;51.290;7.348;2024-01-27T05:22:01;10.93;;;5.50;;
76155;SDS011;64906;51.290;7.348;2024-01-27T05:24:26;10.43;;;5.03;;
76155;SDS011;64906;51.290;7.348;2024-01-27T05:26:52;11.17;;;5.43;;
76155;SDS011;64906;51.290;7.348;2024-01-27T05:29:17;9.83;;;5.20;;
76155;SDS011;64906;51.290;7.348;2024-01-27T05:31:42;10.50;;;4.90;;
76155;SDS011;64906;51.290;7.348;2024-01-27T05:34:09;12.63;;;5.10;;
76155;SDS011;64906;51.290;7.348;2024-01-27T05:36:35;9.52;;;4.43;;
76155;SDS011;64906;51.290;7.348;2024-01-27T05:39:01;9.13;;;4.60;;
76155;SDS011;64906;51.290;7.348;2024-01-27T05:41:28;10.77;;;5.22;;
76155;SDS011;64906;51.290;7.348;2024-01-27T05:43:53;8.93;;;4.50;;
76155;SDS011;64906;51.290;7.348;2024-01-27T05:46:19;8.93;;;4.60;;
76155;SDS011;64906;51.290;7.348;2024-01-27T05:48:44;9.97;;;4.43;;
76155;SDS011;64906;51.290;7.348;2024-01-27T05:51:09;8.53;;;4.73;;
76155;SDS011;64906;51.290;7.348;2024-01-27T05:53:35;10.40;;;4.82;;
76155;SDS011;64906;51.290;7.348;2024-01-27T05:56:02;9.45;;;4.90;;
76155;SDS011;64906;51.290;7.348;2024-01-27T05:58:27;9.00;;;4.25;;
76155;SDS011;64906;51.290;7.348;2024-01-27T06:00:52;8.53;;;4.17;;
76155;SDS011;64906;51.290;7.348;2024-01-27T06:03:17;9.37;;;4.37;;
76155;SDS011;64906;51.290;7.348;2024-01-27T06:05:43;7.97;;;4.23;;
76155;SDS011;64906;51.290;7.348;2024-01-27T06:08:08;8.57;;;3.92;;
76155;SDS011;64906;51.290;7.348;2024-01-27T06:10:34;10.05;;;4.40;;
76155;SDS011;64906;51.290;7.348;2024-01-27T06:13:01;11.10;;;4.60;;
76155;SDS011;64906;51.290;7.348;2024-01-27T06:15:27;8.38;;;4.35;;
76155;SDS011;64906;51.290;7.348;2024-01-27T06:17:52;9.03;;;4.30;;
76155;SDS011;64906;51.290;7.348;2024-01-27T06:20:18;10.07;;;4.30;;
76155;SDS011;64906;51.290;7.348;2024-01-27T06:22:43;9.43;;;3.88;;
76155;SDS011;64906;51.290;7.348;2024-01-27T06:25:09;9.30;;;4.10;;
76155;SDS011;64906;51.290;7.348;2024-01-27T06:27:35;9.50;;;4.20;;
76155;SDS011;64906;51.290;7.348;2024-01-27T06:30:01;7.93;;;3.88;;
76155;SDS011;64906;51.290;7.348;2024-01-27T06:32:26;8.40;;;4.30;;
76155;SDS011;64906;51.290;7.348;2024-01-27T06:34:51;8.20;;;4.00;;
76155;SDS011;64906;51.290;7.348;2024-01-27T06:37:16;10.23;;;4.50;;
76155;SDS011;64906;51.290;7.348;2024-01-27T06:39:42;9.33;;;4.10;;
76155;SDS011;64906;51.290;7.348;2024-01-27T06:42:07;6.73;;;3.43;;
76155;SDS011;64906;51.290;7.348;2024-01-27T06:44:32;7.77;;;3.90;;
76155;SDS011;64906;51.290;7.348;2024-01-27T06:46:57;11.67;;;4.30;;
76155;SDS011;64906;51.290;7.348;2024-01-27T06:49:23;8.83;;;4.00;;
76155;SDS011;64906;51.290;7.348;2024-01-27T06:51:48;8.37;;;3.97;;
76155;SDS011;64906;51.290;7.348;2024-01-27T06:54:13;7.70;;;3.67;;
76155;SDS011;64906;51.290;7.348;2024-01-27T06:56:38;7.53;;;3.67;;
76155;SDS011;64906;51.290;7.348;2024-01-27T06:59:04;7.80;;;4.03;;
76155;SDS011;64906;51.290;7.348;2024-01-27T07:01:29;8.00;;;3.60;;
76155;SDS011;64906;51.290;7.348;2024-01-27T07:03:54;9.93;;;4.13;;
76155;SDS011;64906;51.290;7.348;2024-01-27T07:06:19;7.40;;;3.67;;
76155;SDS011;64906;51.290;7.348;2024-01-27T07:08:45;9.00;;;4.10;;
76155;SDS011;64906;51.290;7.348;2024-01-27T07:11:10;8.13;;;3.60;;
76155;SDS011;64906;51.290;7.348;2024-01-27T07:13:35;9.70;;;3.73;;
76155;SDS011;64906;51.290;7.348;2024-01-27T07:16:00;8.17;;;3.63;;
76155;SDS011;64906;51.290;7.348;2024-01-27T07:18:26;7.60;;;3.37;;
76155;SDS011;64906;51.290;7.348;2024-01-27T07:20:51;9.48;;;3.30;;
76155;SDS011;64906;51.290;7.348;2024-01-27T07:23:17;10.30;;;3.70;;
76155;SDS011;64906;51.290;7.348;2024-01-27T07:25:42;9.18;;;3.67;;
76155;SDS011;64906;51.290;7.348;2024-01-27T07:28:08;7.20;;;3.58;;
76155;SDS011;64906;51.290;7.348;2024-01-27T07:30:33;8.63;;;3.87;;
76155;SDS011;64906;51.290;7.348;2024-01-27T07:32:59;7.23;;;3.70;;
76155;SDS011;64906;51.290;7.348;2024-01-27T07:35:24;7.60;;;3.37;;
76155;SDS011;64906;51.290;7.348;2024-01-27T07:37:49;6.87;;;3.30;;
76155;SDS011;64906;51.290;7.348;2024-01-27T07:40:14;8.10;;;3.27;;
76155;SDS011;64906;51.290;7.348;2024-01-27T07:42:40;7.22;;;3.00;;
76155;SDS011;64906;51.290;7.348;2024-01-27T07:45:06;6.78;;;3.00;;
76155;SDS011;64906;51.290;7.348;2024-01-27T07:47:33;8.40;;;3.33;;
76155;SDS011;64906;51.290;7.348;2024-01-27T07:49:58;7.80;;;3.10;;
76155;SDS011;64906;51.290;7.348;2024-01-27T07:52:24;8.27;;;3.17;;
76155;SDS011;64906;51.290;7.348;2024-01-27T07:54:49;7.30;;;3.27;;
76155;SDS011;64906;51.290;7.348;2024-01-27T07:57:14;7.05;;;3.25;;
76155;SDS011;64906;51.290;7.348;2024-01-27T07:59:39;8.00;;;3.60;;
76155;SDS011;64906;51.290;7.348;2024-01-27T08:02:05;7.03;;;2.90;;
76155;SDS011;64906;51.290;7.348;2024-01-27T08:04:30;7.60;;;3.17;;
76155;SDS011;64906;51.290;7.348;2024-01-27T08:06:55;8.10;;;3.33;;
76155;SDS011;64906;51.290;7.348;2024-01-27T08:09:21;6.83;;;3.50;;
76155;SDS011;64906;51.290;7.348;2024-01-27T08:11:46;6.80;;;3.10;;
76155;SDS011;64906;51.290;7.348;2024-01-27T08:14:16;6.72;;;2.90;;
76155;SDS011;64906;51.290;7.348;2024-01-27T08:16:41;9.02;;;3.00;;
76155;SDS011;64906;51.290;7.348;2024-01-27T08:19:07;8.80;;;3.17;;
76155;SDS011;64906;51.290;7.348;2024-01-27T08:21:32;8.13;;;3.17;;
76155;SDS011;64906;51.290;7.348;2024-01-27T08:23:57;7.30;;;3.23;;
76155;SDS011;64906;51.290;7.348;2024-01-27T08:26:22;7.30;;;3.10;;
76155;SDS011;64906;51.290;7.348;2024-01-27T08:28:48;7.20;;;3.13;;
76155;SDS011;64906;51.290;7.348;2024-01-27T08:31:13;7.23;;;3.00;;
76155;SDS011;64906;51.290;7.348;2024-01-27T08:33:38;7.05;;;3.15;;
76155;SDS011;64906;51.290;7.348;2024-01-27T08:36:04;7.57;;;3.07;;
76155;SDS011;64906;51.290;7.348;2024-01-27T08:38:29;7.40;;;3.45;;
76155;SDS011;64906;51.290;7.348;2024-01-27T08:40:54;7.10;;;3.30;;
76155;SDS011;64906;51.290;7.348;2024-01-27T08:43:20;7.27;;;2.77;;
76155;SDS011;64906;51.290;7.348;2024-01-27T08:45:45;7.07;;;2.93;;
76155;SDS011;64906;51.290;7.348;2024-01-27T08:48:10;7.43;;;2.80;;
76155;SDS011;64906;51.290;7.348;2024-01-27T08:50:36;6.43;;;3.45;;
76155;SDS011;64906;51.290;7.348;2024-01-27T08:53:01;8.80;;;3.25;;
76155;SDS011;64906;51.290;7.348;2024-01-27T08:55:27;9.03;;;3.30;;
76155;SDS011;64906;51.290;7.348;2024-01-27T08:57:52;7.03;;;3.03;;
76155;SDS011;64906;51.290;7.348;2024-01-27T09:00:17;7.03;;;3.17;;
76155;SDS011;64906;51.290;7.348;2024-01-27T09:02:43;6.82;;;2.92;;
76155;SDS011;64906;51.290;7.348;2024-01-27T09:05:08;7.32;;;3.15;;
76155;SDS011;64906;51.290;7.348;2024-01-27T09:07:34;10.25;;;3.50;;
76155;SDS011;64906;51.290;7.348;2024-01-27T09:10:00;6.53;;;3.00;;
76155;SDS011;64906;51.290;7.348;2024-01-27T09:12:25;6.32;;;2.90;;
76155;SDS011;64906;51.290;7.348;2024-01-27T09:14:50;7.67;;;3.10;;
76155;SDS011;64906;51.290;7.348;2024-01-27T09:17:15;6.27;;;3.07;;
76155;SDS011;64906;51.290;7.348;2024-01-27T09:19:41;6.73;;;2.90;;
76155;SDS011;64906;51.290;7.348;2024-01-27T09:22:07;7.13;;;2.88;;
76155;SDS011;64906;51.290;7.348;2024-01-27T09:24:32;7.27;;;2.90;;
76155;SDS011;64906;51.290;7.348;2024-01-27T09:26:57;7.27;;;2.93;;
76155;SDS011;64906;51.290;7.348;2024-01-27T09:29:23;7.17;;;2.60;;
76155;SDS011;64906;51.290;7.348;2024-01-27T09:31:48;12.85;;;7.00;;
76155;SDS011;64906;51.290;7.348;2024-01-27T09:34:14;9.87;;;4.60;;
76155;SDS011;64906;51.290;7.348;2024-01-27T09:36:39;10.60;;;4.70;;
76155;SDS011;64906;51.290;7.348;2024-01-27T09:39:04;18.27;;;10.03;;
76155;SDS011;64906;51.290;7.348;2024-01-27T09:41:30;18.83;;;10.87;;
76155;SDS011;64906;51.290;7.348;2024-01-27T09:44:00;21.33;;;11.73;;
76155;SDS011;64906;51.290;7.348;2024-01-27T09:46:27;21.73;;;13.02;;
76155;SDS011;64906;51.290;7.348;2024-01-27T09:48:54;19.20;;;11.65;;
76155;SDS011;64906;51.290;7.348;2024-01-27T09:51:19;19.38;;;11.63;;
76155;SDS011;64906;51.290;7.348;2024-01-27T09:53:45;20.80;;;11.80;;
76155;SDS011;64906;51.290;7.348;2024-01-27T09:56:10;19.60;;;11.70;;
76155;SDS011;64906;51.290;7.348;2024-01-27T09:58:42;18.30;;;11.13;;
76155;SDS011;64906;51.290;7.348;2024-01-27T10:01:09;20.08;;;10.80;;
76155;SDS011;64906;51.290;7.348;2024-01-27T10:03:35;19.58;;;11.20;;
76155;SDS011;64906;51.290;7.348;2024-01-27T10:06:04;19.52;;;10.90;;
76155;SDS011;64906;51.290;7.348;2024-01-27T10:08:33;18.20;;;10.93;;
76155;SDS011;64906;51.290;7.348;2024-01-27T10:10:58;16.70;;;10.30;;
76155;SDS011;64906;51.290;7.348;2024-01-27T10:13:24;16.10;;;10.55;;
76155;SDS011;64906;51.290;7.348;2024-01-27T10:16:01;17.30;;;10.15;;
76155;SDS011;64906;51.290;7.348;2024-01-27T10:18:31;16.67;;;10.10;;
76155;SDS011;64906;51.290;7.348;2024-01-27T10:20:57;19.58;;;9.95;;
76155;SDS011;64906;51.290;7.348;2024-01-27T10:23:23;17.65;;;10.25;;
76155;SDS011;64906;51.290;7.348;2024-01-27T10:25:48;17.08;;;9.70;;
76155;SDS011;64906;51.290;7.348;2024-01-27T10:28:14;16.67;;;9.85;;
76155;SDS011;64906;51.290;7.348;2024-01-27T10:30:40;15.73;;;9.52;;
76155;SDS011;64906;51.290;7.348;2024-01-27T10:33:07;18.00;;;9.57;;
76155;SDS011;64906;51.290;7.348;2024-01-27T10:35:34;15.60;;;9.38;;
76155;SDS011;64906;51.290;7.348;2024-01-27T10:37:59;16.40;;;9.40;;
76155;SDS011;64906;51.290;7.348;2024-01-27T10:40:24;17.27;;;9.33;;
76155;SDS011;64906;51.290;7.348;2024-01-27T10:42:54;17.40;;;9.57;;
76155;SDS011;64906;51.290;7.348;2024-01-27T10:45:26;14.18;;;9.48;;
76155;SDS011;64906;51.290;7.348;2024-01-27T10:47:52;14.70;;;9.20;;
76155;SDS011;64906;51.290;7.348;2024-01-27T10:50:21;16.38;;;9.63;;
76155;SDS011;64906;51.290;7.348;2024-01-27T10:52:48;13.82;;;8.88;;
76155;SDS011;64906;51.290;7.348;2024-01-27T10:55:16;13.10;;;8.43;;
76155;SDS011;64906;51.290;7.348;2024-01-27T10:57:42;17.15;;;9.18;;
76155;SDS011;64906;51.290;7.348;2024-01-27T11:00:09;14.98;;;9.35;;
76155;SDS011;64906;51.290;7.348;2024-01-27T11:02:37;15.45;;;8.90;;
76155;SDS011;64906;51.290;7.348;2024-01-27T11:05:04;16.35;;;9.10;;
76155;SDS011;64906;51.290;7.348;2024-01-27T11:07:30;15.10;;;9.00;;
76155;SDS011;64906;51.290;7.348;2024-01-27T11:09:57;14.30;;;8.02;;
76155;SDS011;64906;51.290;7.348;2024-01-27T11:12:22;13.93;;;8.37;;
76155;SDS011;64906;51.290;7.348;2024-01-27T11:14:49;13.00;;;8.02;;
76155;SDS011;64906;51.290;7.348;2024-01-27T11:17:15;13.60;;;8.18;;
76155;SDS011;64906;51.290;7.348;2024-01-27T11:19:41;13.05;;;7.93;;
76155;SDS011;64906;51.290;7.348;2024-01-27T11:22:07;14.63;;;8.50;;
76155;SDS011;64906;51.290;7.348;2024-01-27T11:24:32;14.27;;;8.77;;
76155;SDS011;64906;51.290;7.348;2024-01-27T11:27:01;14.27;;;7.97;;
76155;SDS011;64906;51.290;7.348;2024-01-27T11:29:31;15.65;;;8.73;;
76155;SDS011;64906;51.290;7.348;2024-01-27T11:31:59;12.73;;;7.90;;
76155;SDS011;64906;51.290;7.348;2024-01-27T11:34:26;13.55;;;7.80;;
76155;SDS011;64906;51.290;7.348;2024-01-27T11:36:51;12.17;;;7.67;;
76155;SDS011;64906;51.290;7.348;2024-01-27T11:39:26;14.37;;;7.97;;
76155;SDS011;64906;51.290;7.348;2024-01-27T11:41:52;13.90;;;8.30;;
76155;SDS011;64906;51.290;7.348;2024-01-27T11:44:18;14.50;;;8.25;;
76155;SDS011;64906;51.290;7.348;2024-01-27T11:46:44;15.27;;;7.20;;
76155;SDS011;64906;51.290;7.348;2024-01-27T11:49:14;13.65;;;7.85;;
76155;SDS011;64906;51.290;7.348;2024-01-27T11:51:41;16.35;;;8.25;;
76155;SDS011;64906;51.290;7.348;2024-01-27T11:54:06;14.33;;;7.73;;
76155;SDS011;64906;51.290;7.348;2024-01-27T11:56:31;15.02;;;8.07;;
76155;SDS011;64906;51.290;7.348;2024-01-27T11:58:57;12.60;;;7.53;;
76155;SDS011;64906;51.290;7.348;2024-01-27T12:01:22;13.13;;;7.43;;
76155;SDS011;64906;51.290;7.348;2024-01-27T12:03:48;12.68;;;7.57;;
76155;SDS011;64906;51.290;7.348;2024-01-27T12:06:14;14.07;;;7.88;;
76155;SDS011;64906;51.290;7.348;2024-01-27T12:08:40;12.90;;;7.88;;
76155;SDS011;64906;51.290;7.348;2024-01-27T12:11:12;13.10;;;7.93;;
76155;SDS011;64906;51.290;7.348;2024-01-27T12:13:40;13.07;;;7.68;;
76155;SDS011;64906;51.290;7.348;2024-01-27T12:16:06;14.38;;;8.43;;
76155;SDS011;64906;51.290;7.348;2024-01-27T12:18:32;14.02;;;7.95;;
76155;SDS011;64906;51.290;7.348;2024-01-27T12:20:57;14.77;;;8.27;;
76155;SDS011;64906;51.290;7.348;2024-01-27T12:23:23;13.03;;;7.90;;
76155;SDS011;64906;51.290;7.348;2024-01-27T12:25:54;12.63;;;7.57;;
76155;SDS011;64906;51.290;7.348;2024-01-27T12:28:21;15.35;;;7.40;;
76155;SDS011;64906;51.290;7.348;2024-01-27T12:30:48;13.93;;;7.82;;
76155;SDS011;64906;51.290;7.348;2024-01-27T12:33:15;15.73;;;8.70;;
76155;SDS011;64906;51.290;7.348;2024-01-27T12:35:40;15.07;;;7.97;;
76155;SDS011;64906;51.290;7.348;2024-01-27T12:38:05;16.00;;;8.80;;
76155;SDS011;64906;51.290;7.348;2024-01-27T12:40:31;16.75;;;8.48;;
76155;SDS011;64906;51.290;7.348;2024-01-27T12:42:57;17.92;;;8.60;;
76155;SDS011;64906;51.290;7.348;2024-01-27T12:45:22;13.65;;;8.25;;
76155;SDS011;64906;51.290;7.348;2024-01-27T12:47:47;16.73;;;9.03;;
76155;SDS011;64906;51.290;7.348;2024-01-27T12:50:13;15.00;;;8.90;;
76155;SDS011;64906;51.290;7.348;2024-01-27T12:52:38;14.75;;;8.02;;
76155;SDS011;64906;51.290;7.348;2024-01-27T12:55:04;21.63;;;13.30;;
76155;SDS011;64906;51.290;7.348;2024-01-27T12:57:30;17.23;;;10.65;;
76155;SDS011;64906;51.290;7.348;2024-01-27T12:59:56;21.83;;;12.07;;
76155;SDS011;64906;51.290;7.348;2024-01-27T13:02:21;24.07;;;13.23;;
76155;SDS011;64906;51.290;7.348;2024-01-27T13:04:46;22.83;;;12.60;;
76155;SDS011;64906;51.290;7.348;2024-01-27T13:07:12;20.97;;;12.57;;
76155;SDS011;64906;51.290;7.348;2024-01-27T13:09:38;20.77;;;11.90;;
76155;SDS011;64906;51.290;7.348;2024-01-27T13:12:03;22.60;;;11.93;;
76155;SDS011;64906;51.290;7.348;2024-01-27T13:14:29;20.17;;;11.55;;
76155;SDS011;64906;51.290;7.348;2024-01-27T13:16:54;21.03;;;12.10;;
76155;SDS011;64906;51.290;7.348;2024-01-27T13:19:21;20.80;;;11.93;;
76155;SDS011;64906;51.290;7.348;2024-01-27T13:21:47;20.67;;;12.25;;
76155;SDS011;64906;51.290;7.348;2024-01-27T13:24:12;24.80;;;13.53;;
76155;SDS011;64906;51.290;7.348;2024-01-27T13:26:38;24.63;;;12.63;;
76155;SDS011;64906;51.290;7.348;2024-01-27T13:29:06;21.45;;;12.77;;
76155;SDS011;64906;51.290;7.348;2024-01-27T13:31:33;22.92;;;12.27;;
76155;SDS011;64906;51.290;7.348;2024-01-27T13:33:59;20.58;;;12.02;;
76155;SDS011;64906;51.290;7.348;2024-01-27T13:36:24;20.15;;;11.57;;
76155;SDS011;64906;51.290;7.348;2024-01-27T13:38:50;19.55;;;12.15;;
76155;SDS011;64906;51.290;7.348;2024-01-27T13:41:16;19.80;;;11.93;;
76155;SDS011;64906;51.290;7.348;2024-01-27T13:43:42;21.55;;;12.68;;
76155;SDS011;64906;51.290;7.348;2024-01-27T13:46:07;19.47;;;11.90;;
76155;SDS011;64906;51.290;7.348;2024-01-27T13:48:33;21.87;;;12.27;;
76155;SDS011;64906;51.290;7.348;2024-01-27T13:50:58;21.67;;;12.45;;
76155;SDS011;64906;51.290;7.348;2024-01-27T13:53:24;20.52;;;12.27;;
76155;SDS011;64906;51.290;7.348;2024-01-27T13:55:49;19.40;;;11.17;;
76155;SDS011;64906;51.290;7.348;2024-01-27T13:58:14;20.25;;;11.77;;
76155;SDS011;64906;51.290;7.348;2024-01-27T14:00:40;19.52;;;11.77;;
76155;SDS011;64906;51.290;7.348;2024-01-27T14:03:05;19.03;;;12.10;;
76155;SDS011;64906;51.290;7.348;2024-01-27T14:05:30;20.23;;;11.37;;
76155;SDS011;64906;51.290;7.348;2024-01-27T14:07:56;20.10;;;12.23;;
76155;SDS011;64906;51.290;7.348;2024-01-27T14:10:21;19.50;;;11.45;;
76155;SDS011;64906;51.290;7.348;2024-01-27T14:12:46;18.88;;;11.48;;
76155;SDS011;64906;51.290;7.348;2024-01-27T14:15:12;20.83;;;12.43;;
76155;SDS011;64906;51.290;7.348;2024-01-27T14:17:37;20.08;;;12.10;;
76155;SDS011;64906;51.290;7.348;2024-01-27T14:20:03;20.25;;;12.10;;
76155;SDS011;64906;51.290;7.348;2024-01-27T14:22:29;19.27;;;11.73;;
76155;SDS011;64906;51.290;7.348;2024-01-27T14:24:55;20.60;;;11.32;;